createdAt,value
2023-03-27T03:01:39.109Z,9.80
2023-03-27T03:04:20.532Z,4.40
2023-03-27T03:07:06.388Z,5.83
2023-03-27T03:09:34.994Z,8.27
2023-03-27T03:12:09.725Z,4.73
2023-03-27T03:14:47.056Z,5.77
2023-03-27T03:17:17.908Z,9.73
2023-03-27T03:19:46.679Z,7.07
2023-03-27T03:22:14.680Z,6.47
2023-03-27T03:24:43.660Z,4.67
2023-03-27T03:27:14.977Z,7.13
2023-03-27T03:29:53.080Z,5.90
2023-03-27T03:32:26.365Z,7.77
2023-03-27T03:34:56.873Z,4.70
2023-03-27T03:37:28.361Z,5.00
2023-03-27T03:39:58.102Z,10.17
2023-03-27T03:42:25.946Z,6.47
2023-03-27T03:44:54.071Z,8.43
2023-03-27T03:47:24.875Z,9.30
2023-03-27T03:49:52.755Z,4.53
2023-03-27T03:52:20.981Z,5.07
2023-03-27T03:54:48.857Z,7.03
2023-03-27T03:57:17.110Z,4.00
2023-03-27T03:59:54.560Z,6.53
2023-03-27T04:02:54.275Z,10.17
2023-03-27T04:05:23.548Z,6.27
2023-03-27T04:07:59.330Z,7.00
2023-03-27T04:10:49.098Z,7.57
2023-03-27T04:13:35.344Z,5.90
2023-03-27T04:16:13.474Z,7.63
2023-03-27T04:18:49.574Z,11.90
2023-03-27T04:21:20.362Z,7.20
2023-03-27T04:23:49.153Z,7.70
2023-03-27T04:26:26.352Z,8.47
2023-03-27T04:29:22.327Z,3.43
2023-03-27T04:32:12.949Z,6.23
2023-03-27T04:34:42.413Z,7.73
2023-03-27T04:37:18.446Z,9.60
2023-03-27T04:40:14.049Z,6.43
2023-03-27T04:42:43.896Z,5.03
2023-03-27T04:45:14.997Z,8.00
2023-03-27T04:47:46.416Z,7.07
2023-03-27T04:50:16.727Z,7.93
2023-03-27T04:52:47.904Z,9.43
2023-03-27T04:55:18.235Z,5.33
2023-03-27T04:57:48.978Z,10.90
2023-03-27T05:00:19.303Z,6.90
2023-03-27T05:02:47.661Z,7.73
2023-03-27T05:05:26.765Z,6.97
2023-03-27T05:07:54.942Z,6.43
2023-03-27T05:10:25.420Z,9.20
2023-03-27T05:12:58.421Z,6.90
2023-03-27T05:15:32.281Z,9.17
2023-03-27T05:18:01.372Z,11.10
2023-03-27T05:20:32.974Z,9.10
2023-03-27T05:23:06.216Z,5.90
2023-03-27T05:25:34.590Z,5.87
2023-03-27T05:28:05.984Z,8.03
2023-03-27T05:30:36.361Z,6.83
2023-03-27T05:33:23.898Z,8.43
2023-03-27T05:35:54.625Z,7.73
2023-03-27T05:38:24.558Z,8.40
2023-03-27T05:41:09.855Z,9.63
2023-03-27T05:43:42.306Z,9.30
2023-03-27T05:46:11.297Z,6.17
2023-03-27T05:48:41.206Z,8.60
2023-03-27T05:51:12.570Z,7.10
2023-03-27T05:53:41.551Z,7.63
2023-03-27T05:56:21.530Z,8.03
2023-03-27T05:59:01.106Z,8.03
2023-03-27T06:01:30.857Z,9.20
2023-03-27T06:04:04.477Z,5.37
2023-03-27T06:06:55.291Z,7.17
2023-03-27T06:09:23.504Z,7.47
2023-03-27T06:12:14.188Z,9.00
2023-03-27T06:14:43.204Z,10.77
2023-03-27T06:17:26.458Z,10.00
2023-03-27T06:20:02.093Z,8.97
2023-03-27T06:22:34.591Z,9.73
2023-03-27T06:25:06.689Z,6.90
2023-03-27T06:27:34.873Z,11.80
2023-03-27T06:30:03.159Z,6.30
2023-03-27T06:32:34.213Z,10.67
2023-03-27T06:35:02.691Z,7.20
2023-03-27T06:37:53.668Z,6.50
2023-03-27T06:40:25.304Z,10.13
2023-03-27T06:42:57.380Z,10.20
2023-03-27T06:45:33.438Z,5.77
2023-03-27T06:48:30.389Z,7.13
2023-03-27T06:50:58.848Z,12.53
2023-03-27T06:53:31.080Z,5.67
2023-03-27T06:56:02.151Z,10.77
2023-03-27T06:58:44.538Z,7.17
2023-03-27T07:01:13.019Z,11.07
2023-03-27T07:03:59.532Z,9.00
2023-03-27T07:06:56.201Z,9.93
2023-03-27T07:09:25.558Z,10.20
2023-03-27T07:12:04.191Z,8.23
2023-03-27T07:14:33.190Z,8.77
2023-03-27T07:17:02.443Z,13.47
2023-03-27T07:19:46.862Z,7.50
2023-03-27T07:22:15.945Z,9.53
2023-03-27T07:24:45.159Z,6.23
2023-03-27T07:27:12.986Z,8.33
2023-03-27T07:29:42.852Z,6.67
2023-03-27T07:32:29.575Z,7.70
2023-03-27T07:35:05.209Z,6.60
2023-03-27T07:37:54.146Z,12.40
2023-03-27T07:40:40.552Z,8.87
2023-03-27T07:43:28.984Z,9.13
2023-03-27T07:45:57.738Z,8.80
2023-03-27T07:48:27.716Z,7.37
2023-03-27T07:51:07.196Z,6.47
2023-03-27T07:53:41.444Z,8.87
2023-03-27T07:56:26.948Z,6.57
2023-03-27T07:59:22.019Z,6.60
2023-03-27T08:01:50.653Z,9.00
2023-03-27T08:04:19.694Z,8.33
2023-03-27T08:07:02.132Z,6.90
2023-03-27T08:09:30.768Z,6.93
2023-03-27T08:12:00.057Z,5.67
2023-03-27T08:14:28.143Z,5.37
2023-03-27T08:17:12.326Z,8.17
2023-03-27T08:19:45.415Z,11.80
2023-03-27T08:22:14.290Z,10.90
2023-03-27T08:25:02.228Z,11.60
2023-03-27T08:27:32.184Z,5.83
2023-03-27T08:30:00.616Z,8.93
2023-03-27T08:32:28.694Z,8.50
2023-03-27T08:35:01.284Z,5.67
2023-03-27T08:37:29.589Z,6.60
2023-03-27T08:40:33.863Z,6.27
2023-03-27T08:43:27.162Z,5.70
2023-03-27T08:46:00.334Z,5.07
2023-03-27T08:48:33.411Z,5.43
2023-03-27T08:51:05.452Z,5.70
2023-03-27T08:53:40.361Z,11.13
2023-03-27T08:56:13.882Z,6.90
2023-03-27T08:58:46.353Z,6.17
2023-03-27T09:01:29.457Z,10.23
2023-03-27T09:04:07.333Z,10.33
2023-03-27T09:06:44.619Z,3.67
2023-03-27T09:09:27.395Z,8.53
2023-03-27T09:12:03.253Z,5.67
2023-03-27T09:14:38.492Z,7.83
2023-03-27T09:17:12.920Z,5.63
2023-03-27T09:19:47.460Z,7.40
2023-03-27T09:22:23.425Z,5.37
2023-03-27T09:25:08.270Z,2.80
2023-03-27T09:28:21.085Z,3.50
2023-03-27T09:30:57.349Z,4.50
2023-03-27T09:33:30.360Z,6.70
2023-03-27T09:35:59.927Z,6.00
2023-03-27T09:38:33.146Z,5.03
2023-03-27T09:41:06.713Z,2.58
2023-03-27T09:43:43.917Z,6.68
2023-03-27T09:46:18.074Z,3.97
2023-03-27T09:48:55.254Z,4.43
2023-03-27T09:51:38.647Z,4.30
2023-03-27T09:54:09.688Z,1.77
2023-03-27T09:56:39.784Z,2.40
2023-03-27T09:59:24.904Z,2.13
2023-03-27T10:01:58.450Z,1.10
2023-03-27T10:04:29.146Z,2.10
2023-03-27T10:07:02.166Z,1.93
2023-03-27T10:10:07.161Z,4.03
2023-03-27T10:12:42.461Z,1.30
2023-03-27T10:15:32.957Z,1.77
2023-03-27T10:18:06.659Z,2.40
2023-03-27T10:20:35.718Z,2.67
2023-03-27T10:23:08.719Z,2.77
2023-03-27T10:25:39.959Z,4.43
2023-03-27T10:28:23.792Z,2.00
2023-03-27T10:31:29.501Z,2.50
2023-03-27T10:34:33.457Z,1.73
2023-03-27T10:37:29.226Z,4.70
2023-03-27T10:40:18.630Z,3.58
2023-03-27T10:42:50.102Z,4.00
2023-03-27T10:45:20.781Z,3.73
2023-03-27T10:47:53.542Z,3.28
2023-03-27T10:50:28.261Z,4.60
2023-03-27T10:53:05.248Z,2.80
2023-03-27T10:55:51.657Z,3.05
2023-03-27T10:58:29.948Z,3.87
2023-03-27T11:01:05.637Z,5.10
2023-03-27T11:03:39.639Z,4.57
2023-03-27T11:06:15.976Z,7.93
2023-03-27T11:08:52.891Z,7.23
2023-03-27T11:11:28.620Z,4.43
2023-03-27T11:14:02.571Z,2.50
2023-03-27T11:16:38.220Z,2.63
2023-03-27T11:19:41.074Z,3.17
2023-03-27T11:22:39.444Z,3.65
2023-03-27T11:25:20.787Z,3.55
2023-03-27T11:27:54.505Z,2.85
2023-03-27T11:30:37.908Z,4.30
2023-03-27T11:33:24.315Z,3.20
2023-03-27T11:36:02.420Z,4.77
2023-03-27T11:39:00.856Z,2.40
2023-03-27T11:41:28.742Z,3.53
2023-03-27T11:44:01.611Z,2.95
2023-03-27T11:47:23.007Z,2.45
2023-03-27T11:50:15.687Z,3.22
2023-03-27T11:52:55.055Z,1.50
2023-03-27T11:56:01.830Z,2.90
2023-03-27T11:58:35.720Z,3.25
2023-03-27T12:01:14.899Z,2.97
2023-03-27T12:04:13.332Z,2.25
2023-03-27T12:07:12.356Z,2.25
2023-03-27T12:10:00.435Z,1.20
2023-03-27T12:13:00.713Z,3.08
2023-03-27T12:15:48.937Z,1.20
2023-03-27T12:18:35.886Z,1.73
2023-03-27T12:21:23.990Z,1.33
2023-03-27T12:24:22.589Z,1.37
2023-03-27T12:27:23.901Z,2.23
2023-03-27T12:30:10.051Z,1.30
2023-03-27T12:33:01.494Z,2.30
2023-03-27T12:35:33.173Z,2.10
2023-03-27T12:38:03.907Z,1.97
2023-03-27T12:40:41.059Z,1.70
2023-03-27T12:43:27.415Z,2.27
2023-03-27T12:46:20.690Z,1.40
2023-03-27T12:48:56.593Z,1.83
2023-03-27T12:51:44.190Z,1.50
2023-03-27T12:54:25.771Z,3.33
2023-03-27T12:57:05.222Z,2.13
2023-03-27T12:59:38.101Z,3.03
2023-03-27T13:02:41.935Z,3.67
2023-03-27T13:05:38.083Z,3.50
2023-03-27T13:08:39.100Z,2.60
2023-03-27T13:11:24.537Z,3.33
2023-03-27T13:14:22.980Z,3.43
2023-03-27T13:17:15.431Z,1.63
2023-03-27T13:19:56.304Z,2.23
2023-03-27T13:23:01.311Z,3.53
2023-03-27T13:25:42.483Z,2.37
2023-03-27T13:28:34.430Z,2.67
2023-03-27T13:31:14.547Z,3.97
2023-03-27T13:34:11.872Z,2.95
2023-03-27T13:36:47.520Z,1.38
2023-03-27T13:39:24.828Z,1.17
2023-03-27T13:42:09.667Z,1.60
2023-03-27T13:44:58.206Z,2.88
2023-03-27T13:48:13.795Z,2.83
2023-03-27T13:51:06.849Z,1.98
2023-03-27T13:53:51.940Z,1.48
2023-03-27T13:56:59.717Z,3.15
2023-03-27T14:00:01.054Z,4.00
2023-03-27T14:03:23.138Z,2.50
2023-03-27T14:06:32.479Z,3.72
2023-03-27T14:09:15.945Z,2.63
2023-03-27T14:12:13.967Z,3.38
2023-03-27T14:15:10.727Z,1.95
2023-03-27T14:17:55.500Z,2.35
2023-03-27T14:20:25.984Z,2.63
2023-03-27T14:22:58.006Z,1.60
2023-03-27T14:25:38.211Z,3.72
2023-03-27T14:28:32.517Z,2.83
2023-03-27T14:31:08.375Z,3.22
2023-03-27T14:34:05.134Z,2.42
2023-03-27T14:36:42.000Z,2.92
2023-03-27T14:39:18.545Z,2.95
2023-03-27T14:41:55.592Z,3.50
2023-03-27T14:44:25.810Z,1.30
2023-03-27T14:47:00.100Z,3.22
2023-03-27T14:49:35.752Z,3.28
2023-03-27T14:52:09.078Z,3.15
2023-03-27T14:55:01.449Z,3.92
2023-03-27T14:57:39.204Z,3.15
2023-03-27T15:00:16.268Z,3.38
2023-03-27T15:02:48.209Z,4.20
2023-03-27T15:05:18.297Z,2.40
2023-03-27T15:07:52.024Z,3.70
2023-03-27T15:10:51.211Z,0.93
2023-03-27T15:13:27.266Z,3.05
2023-03-27T15:16:00.904Z,2.15
2023-03-27T15:18:35.947Z,1.95
2023-03-27T15:21:07.485Z,2.17
2023-03-27T15:23:41.535Z,2.00
2023-03-27T15:26:15.592Z,1.83
2023-03-27T15:28:53.339Z,1.55
2023-03-27T15:31:21.817Z,1.83
2023-03-27T15:34:02.009Z,3.17
2023-03-27T15:36:34.253Z,3.03
2023-03-27T15:39:04.149Z,1.48
2023-03-27T15:41:42.752Z,1.45
2023-03-27T15:44:16.754Z,2.75
2023-03-27T15:46:51.329Z,1.60
2023-03-27T15:49:29.287Z,3.65
2023-03-27T15:51:58.914Z,3.42
2023-03-27T15:54:37.970Z,1.23
2023-03-27T15:57:11.613Z,3.15
2023-03-27T15:59:53.067Z,4.30
2023-03-27T16:02:25.633Z,3.35
2023-03-27T16:04:56.095Z,2.63
2023-03-27T16:07:27.344Z,3.42
2023-03-27T16:09:59.764Z,1.52
2023-03-27T16:12:32.457Z,1.35
2023-03-27T16:15:04.402Z,2.50
2023-03-27T16:17:39.362Z,3.22
2023-03-27T16:20:34.016Z,1.50
2023-03-27T16:23:02.212Z,3.30
2023-03-27T16:25:31.218Z,3.70
2023-03-27T16:28:00.541Z,2.83
2023-03-27T16:30:32.131Z,2.50
2023-03-27T16:33:01.178Z,3.77
2023-03-27T16:35:31.986Z,3.00
2023-03-27T16:38:00.823Z,1.93
2023-03-27T16:40:28.754Z,6.00
2023-03-27T16:42:56.960Z,4.20
2023-03-27T16:45:24.842Z,2.40
2023-03-27T16:47:54.836Z,3.63
2023-03-27T16:50:25.512Z,2.92
2023-03-27T16:52:54.390Z,9.67
2023-03-27T16:55:22.624Z,3.65
2023-03-27T16:57:52.592Z,14.23
2023-03-27T17:00:21.941Z,2.27
2023-03-27T17:02:49.842Z,1.52
2023-03-27T17:05:19.562Z,1.27
2023-03-27T17:07:48.236Z,2.37
2023-03-27T17:10:17.018Z,1.20
2023-03-27T17:12:45.152Z,1.20
2023-03-27T17:15:14.954Z,1.00
2023-03-27T17:17:42.931Z,3.17
2023-03-27T17:20:11.993Z,2.07
2023-03-27T17:22:41.293Z,1.77
2023-03-27T17:25:10.204Z,1.80
2023-03-27T17:27:38.161Z,1.50
2023-03-27T17:30:07.212Z,4.27
2023-03-27T17:32:35.158Z,1.93
2023-03-27T17:35:04.407Z,2.77
2023-03-27T17:37:32.280Z,2.07
2023-03-27T17:40:01.566Z,1.50
2023-03-27T17:42:29.573Z,2.03
2023-03-27T17:44:57.419Z,2.97
2023-03-27T17:47:25.471Z,1.10
2023-03-27T17:49:54.539Z,1.50
2023-03-27T17:52:23.367Z,1.43
2023-03-27T17:54:51.372Z,1.57
2023-03-27T17:57:22.839Z,1.77
2023-03-27T17:59:50.906Z,1.33
2023-03-27T18:02:20.568Z,2.43
2023-03-27T18:04:52.061Z,1.67
2023-03-27T18:07:20.474Z,2.47
2023-03-27T18:09:49.055Z,2.40
2023-03-27T18:12:17.709Z,3.20
2023-03-27T18:14:48.484Z,3.37
2023-03-27T18:17:20.741Z,1.83
2023-03-27T18:19:49.097Z,3.50
2023-03-27T18:22:17.408Z,1.30
2023-03-27T18:24:45.232Z,2.07
2023-03-27T18:27:13.307Z,2.97
2023-03-27T18:29:41.239Z,3.90
2023-03-27T18:32:10.853Z,2.10
2023-03-27T18:34:38.689Z,2.33
2023-03-27T18:37:06.636Z,2.50
2023-03-27T18:39:37.349Z,2.33
2023-03-27T18:42:05.709Z,2.67
2023-03-27T18:44:33.613Z,3.53
2023-03-27T18:47:01.576Z,2.57
2023-03-27T18:49:30.837Z,2.90
2023-03-27T18:51:58.674Z,2.17
2023-03-27T18:54:26.516Z,3.83
2023-03-27T18:56:54.354Z,1.40
2023-03-27T18:59:22.618Z,2.87
2023-03-27T19:01:50.550Z,2.00
2023-03-27T19:04:18.941Z,2.13
2023-03-27T19:06:48.097Z,5.00
2023-03-27T19:09:16.271Z,1.33
2023-03-27T19:11:44.998Z,3.90
2023-03-27T19:14:32.976Z,3.50
2023-03-27T19:17:38.954Z,1.83
2023-03-27T19:20:23.529Z,3.03
2023-03-27T19:22:58.425Z,4.63
2023-03-27T19:25:33.470Z,3.67
2023-03-27T19:28:01.604Z,4.23
2023-03-27T19:30:30.509Z,2.10
2023-03-27T19:32:58.852Z,2.33
2023-03-27T19:35:27.544Z,3.20
2023-03-27T19:37:55.367Z,2.47
2023-03-27T19:40:24.926Z,2.70
2023-03-27T19:42:52.794Z,4.07
2023-03-27T19:45:20.636Z,3.83
2023-03-27T19:47:48.721Z,2.27
2023-03-27T19:50:16.996Z,2.63
2023-03-27T19:53:05.249Z,2.03
2023-03-27T19:55:37.048Z,2.83
2023-03-27T19:58:04.917Z,2.57
2023-03-27T20:00:38.181Z,3.80
2023-03-27T20:03:10.038Z,1.70
2023-03-27T20:05:41.348Z,5.00
2023-03-27T20:08:09.227Z,3.17
2023-03-27T20:10:38.429Z,6.13
2023-03-27T20:13:06.266Z,5.47
2023-03-27T20:15:34.779Z,3.13
2023-03-27T20:18:04.572Z,3.33
2023-03-27T20:20:32.658Z,3.97
2023-03-27T20:23:03.721Z,1.97
2023-03-27T20:25:33.666Z,4.83
2023-03-27T20:28:05.142Z,4.83
2023-03-27T20:30:35.901Z,3.63
2023-03-27T20:33:04.035Z,4.00
2023-03-27T20:35:34.849Z,3.90
2023-03-27T20:38:05.648Z,3.20
2023-03-27T20:40:52.858Z,7.80
2023-03-27T20:43:27.139Z,5.13
2023-03-27T20:45:58.865Z,4.07
2023-03-27T20:48:32.352Z,3.50
2023-03-27T20:51:02.899Z,2.80
2023-03-27T20:53:32.544Z,1.87
2023-03-27T20:56:04.112Z,2.17
2023-03-27T20:58:35.876Z,3.90
2023-03-27T21:01:05.037Z,5.67
2023-03-27T21:03:34.895Z,1.40
2023-03-27T21:06:05.607Z,4.20
2023-03-27T21:08:34.410Z,3.97
2023-03-27T21:11:03.036Z,2.00
2023-03-27T21:13:31.345Z,4.90
2023-03-27T21:16:00.828Z,2.50
2023-03-27T21:18:29.080Z,2.40
2023-03-27T21:20:57.057Z,8.00
2023-03-27T21:23:25.332Z,2.70
2023-03-27T21:25:53.279Z,5.03
2023-03-27T21:28:21.130Z,2.90
2023-03-27T21:30:49.267Z,3.37
2023-03-27T21:33:18.588Z,6.03
2023-03-27T21:35:48.239Z,3.90
2023-03-27T21:38:17.304Z,4.60
2023-03-27T21:40:46.603Z,3.80
2023-03-27T21:43:14.698Z,3.03
2023-03-27T21:45:42.616Z,3.27
2023-03-27T21:48:10.912Z,2.57
2023-03-27T21:50:40.320Z,4.10
2023-03-27T21:53:08.315Z,2.43
2023-03-27T21:55:37.351Z,4.90
2023-03-27T21:58:05.639Z,4.40
